Startpagina
METAR-TAF:

METAR-TAF

Vliegvelden :

Vlieland, Nederland

breedte: 53-15N, lengte: 004-55E, hoogte: 11 m

Actueel weer

Dit bericht is 17 minuten geleden gemaakt, om 02:55 UTC
Wind 13 kt uit het westnoordwesten
Temperatuur 18°C
Vochtigheid 83%
Druk 1012 hPa
Zicht 10 km of meer
Geheel bewolkt op 16000 ft

METAR: EHVL 240255Z AUTO 29013KT 9999 OVC160 18/15 Q1012 BLU

Tijdstip: 05:12 (03:12 UTC)


TAF: ontbreekt

Waarnemingen en weersverwachtingen van meer dan 4000 vliegvelden (METAR en TAF).

De beschikbare stations zijn de gele en rode punten op de kaart.

Ga met uw muis naar het station om de naam te zien.

Klik dan om waarnemingen en weersverwachtingen te zien.

kaart wijzigen: klik op de groene knoppen met een zwart kruis om in te zoomen, op de groene knop met een streepje om uit te zoomen of op de groene pijlen voor aangrenzende kaarten.


METAR-TAF: